createdAt,value
2017-07-26T00:00:41.917Z,0
2017-07-26T00:01:41.290Z,0
2017-07-26T00:02:41.301Z,0
2017-07-26T00:03:41.582Z,0
2017-07-26T00:04:41.550Z,0
2017-07-26T00:05:41.843Z,0
2017-07-26T00:06:41.220Z,0
2017-07-26T00:07:41.190Z,0
2017-07-26T00:08:41.480Z,0
2017-07-26T00:09:41.780Z,0
2017-07-26T00:10:41.762Z,0
2017-07-26T00:11:41.139Z,0
2017-07-26T00:12:41.422Z,0
2017-07-26T00:13:41.709Z,0
2017-07-26T00:14:41.386Z,0
2017-07-26T00:15:41.670Z,0
2017-07-26T00:16:41.068Z,0
2017-07-26T00:17:41.040Z,0
2017-07-26T00:18:41.631Z,0
2017-07-26T00:19:41.610Z,0
2017-07-26T00:20:41.078Z,0
2017-07-26T00:21:41.579Z,0
2017-07-26T00:22:41.037Z,0
2017-07-26T00:23:41.552Z,0
2017-07-26T00:24:41.220Z,0
2017-07-26T00:25:41.219Z,0
2017-07-26T00:26:41.198Z,0
2017-07-26T00:27:41.168Z,0
2017-07-26T00:28:41.458Z,0
2017-07-26T00:29:41.167Z,0
2017-07-26T00:30:41.459Z,0
2017-07-26T00:31:41.122Z,0
2017-07-26T00:32:41.160Z,0
2017-07-26T00:33:40.787Z,0
2017-07-26T00:34:41.076Z,0
2017-07-26T00:35:41.069Z,0
2017-07-26T00:36:40.780Z,0
2017-07-26T00:37:41.019Z,0
2017-07-26T00:38:41.032Z,0
2017-07-26T00:39:41.045Z,0
2017-07-26T00:40:40.985Z,0
2017-07-26T00:41:40.960Z,0
2017-07-26T00:42:40.932Z,0
2017-07-26T00:43:41.236Z,0
2017-07-26T00:44:40.917Z,0
2017-07-26T00:45:41.203Z,0
2017-07-26T00:46:40.863Z,0
2017-07-26T00:47:40.887Z,0
2017-07-26T00:48:41.160Z,0
2017-07-26T00:49:41.132Z,0
2017-07-26T00:50:40.800Z,0
2017-07-26T00:51:41.182Z,0
2017-07-26T00:52:41.098Z,0
2017-07-26T00:53:40.470Z,0
2017-07-26T00:54:41.088Z,0
2017-07-26T00:55:40.793Z,0
2017-07-26T00:56:41.048Z,0
2017-07-26T00:57:41.010Z,0
2017-07-26T00:58:40.799Z,0
2017-07-26T00:59:40.987Z,0
2017-07-26T01:00:41.076Z,0
2017-07-26T01:01:40.970Z,0
2017-07-26T01:02:40.629Z,0
2017-07-26T01:03:40.602Z,0
2017-07-26T01:04:40.924Z,0
2017-07-26T01:05:40.890Z,0
2017-07-26T01:06:40.984Z,0
2017-07-26T01:07:40.956Z,0
2017-07-26T01:08:40.946Z,0
2017-07-26T01:09:40.869Z,0
2017-07-26T01:10:40.914Z,0
2017-07-26T01:11:40.791Z,0
2017-07-26T01:12:40.863Z,0
2017-07-26T01:13:40.445Z,0
2017-07-26T01:14:40.485Z,0
2017-07-26T01:15:40.768Z,0
2017-07-26T01:16:40.708Z,0
2017-07-26T01:17:40.705Z,0
2017-07-26T01:18:40.370Z,0
2017-07-26T01:19:40.337Z,0
2017-07-26T01:20:40.325Z,0
2017-07-26T01:21:40.790Z,0
2017-07-26T01:22:39.999Z,0
2017-07-26T01:23:40.292Z,0
2017-07-26T01:24:40.349Z,0
2017-07-26T01:25:39.940Z,0
2017-07-26T01:26:39.909Z,0
2017-07-26T01:27:40.209Z,0
2017-07-26T01:28:39.901Z,0
2017-07-26T01:29:39.868Z,0
2017-07-26T01:30:40.479Z,0
2017-07-26T01:31:40.141Z,0
2017-07-26T01:32:40.140Z,0
2017-07-26T01:33:40.529Z,0
2017-07-26T01:34:40.459Z,0
2017-07-26T01:35:40.397Z,0
2017-07-26T01:36:40.133Z,0
2017-07-26T01:37:40.470Z,0
2017-07-26T01:38:39.729Z,0
2017-07-26T01:39:40.327Z,0
2017-07-26T01:40:40.359Z,0
2017-07-26T01:41:40.009Z,0
2017-07-26T01:42:40.300Z,0
2017-07-26T01:43:40.295Z,0
2017-07-26T01:44:40.249Z,0
2017-07-26T01:45:39.929Z,0
2017-07-26T01:46:39.910Z,0
2017-07-26T01:47:39.889Z,0
2017-07-26T01:48:39.871Z,0
2017-07-26T01:49:39.854Z,0
2017-07-26T01:50:39.850Z,0
2017-07-26T01:51:39.830Z,0
2017-07-26T01:52:40.131Z,0
2017-07-26T01:53:39.798Z,0
2017-07-26T01:54:39.784Z,0
2017-07-26T01:55:39.468Z,0
2017-07-26T01:56:39.448Z,0
2017-07-26T01:57:39.733Z,0
2017-07-26T01:58:39.721Z,0
2017-07-26T01:59:39.718Z,0
2017-07-26T02:00:39.991Z,0
2017-07-26T02:01:40.029Z,0
2017-07-26T02:02:39.359Z,0
2017-07-26T02:03:39.640Z,0
2017-07-26T02:04:39.927Z,0
2017-07-26T02:05:39.610Z,0
2017-07-26T02:06:39.887Z,0
2017-07-26T02:07:39.571Z,0
2017-07-26T02:08:39.567Z,0
2017-07-26T02:09:39.536Z,0
2017-07-26T02:10:38.907Z,0
2017-07-26T02:11:39.509Z,0
2017-07-26T02:12:39.800Z,0
2017-07-26T02:13:39.769Z,0
2017-07-26T02:14:39.470Z,0
2017-07-26T02:15:39.459Z,0
2017-07-26T02:16:39.427Z,0
2017-07-26T02:17:39.720Z,0
2017-07-26T02:18:39.709Z,0
2017-07-26T02:19:39.728Z,0
2017-07-26T02:20:39.358Z,0
2017-07-26T02:21:39.669Z,0
2017-07-26T02:22:39.638Z,0
2017-07-26T02:23:39.622Z,0
2017-07-26T02:24:39.600Z,0
2017-07-26T02:25:39.590Z,0
2017-07-26T02:26:38.959Z,0
2017-07-26T02:27:38.949Z,0
2017-07-26T02:28:38.930Z,0
2017-07-26T02:29:38.920Z,0
2017-07-26T02:30:39.520Z,0
2017-07-26T02:31:38.901Z,0
2017-07-26T02:32:39.187Z,0
2017-07-26T02:33:39.230Z,0
2017-07-26T02:34:39.169Z,0
2017-07-26T02:35:39.128Z,0
2017-07-26T02:36:39.121Z,0
2017-07-26T02:37:38.789Z,0
2017-07-26T02:38:39.080Z,0
2017-07-26T02:39:39.382Z,0
2017-07-26T02:40:39.353Z,0
2017-07-26T02:41:39.339Z,0
2017-07-26T02:42:39.030Z,0
2017-07-26T02:43:39.319Z,0
2017-07-26T02:44:39.299Z,0
2017-07-26T02:45:38.960Z,0
2017-07-26T02:46:38.650Z,0
2017-07-26T02:47:38.723Z,0
2017-07-26T02:48:38.922Z,0
2017-07-26T02:49:38.630Z,0
2017-07-26T02:50:38.609Z,0
2017-07-26T02:51:38.880Z,0
2017-07-26T02:52:38.566Z,0
2017-07-26T02:53:38.820Z,0
2017-07-26T02:54:38.819Z,0
2017-07-26T02:55:38.829Z,0
2017-07-26T02:56:39.095Z,0
2017-07-26T02:57:38.530Z,0
2017-07-26T02:58:38.527Z,0
2017-07-26T02:59:38.801Z,0
2017-07-26T03:00:38.431Z,0
2017-07-26T03:01:38.718Z,0
2017-07-26T03:02:38.422Z,0
2017-07-26T03:03:38.436Z,0
2017-07-26T03:04:38.771Z,0
2017-07-26T03:05:38.759Z,0
2017-07-26T03:06:38.670Z,0
2017-07-26T03:07:38.925Z,0
2017-07-26T03:08:38.601Z,0
2017-07-26T03:09:38.610Z,0
2017-07-26T03:10:38.640Z,0
2017-07-26T03:11:38.660Z,0
2017-07-26T03:12:38.239Z,0
2017-07-26T03:13:38.527Z,0
2017-07-26T03:14:38.542Z,0
2017-07-26T03:15:38.190Z,0
2017-07-26T03:16:38.497Z,4
2017-07-26T03:17:38.469Z,4
2017-07-26T03:18:38.490Z,4
2017-07-26T03:19:38.530Z,0
2017-07-26T03:20:38.829Z,0
2017-07-26T03:21:38.495Z,4
2017-07-26T03:22:38.431Z,4
2017-07-26T03:23:38.407Z,4
2017-07-26T03:24:38.661Z,8
2017-07-26T03:25:38.689Z,4
2017-07-26T03:26:38.689Z,4
2017-07-26T03:27:38.610Z,8
2017-07-26T03:28:38.629Z,8
2017-07-26T03:29:38.679Z,12
2017-07-26T03:30:38.280Z,8
2017-07-26T03:31:38.291Z,12
2017-07-26T03:32:38.540Z,12
2017-07-26T03:33:38.530Z,16
2017-07-26T03:34:38.191Z,20
2017-07-26T03:35:38.549Z,20
2017-07-26T03:36:38.490Z,28
2017-07-26T03:37:38.459Z,32
2017-07-26T03:38:38.149Z,32
2017-07-26T03:39:38.469Z,36
2017-07-26T03:40:38.102Z,36
2017-07-26T03:41:38.076Z,40
2017-07-26T03:42:38.383Z,40
2017-07-26T03:43:38.432Z,44
2017-07-26T03:44:38.363Z,48
2017-07-26T03:45:38.039Z,52
2017-07-26T03:46:38.470Z,56
2017-07-26T03:47:37.989Z,56
2017-07-26T03:48:37.961Z,64
2017-07-26T03:49:37.961Z,68
2017-07-26T03:50:38.248Z,72
2017-07-26T03:51:38.214Z,76
2017-07-26T03:52:37.898Z,80
2017-07-26T03:53:37.278Z,88
2017-07-26T03:54:38.179Z,88
2017-07-26T03:55:37.851Z,96
2017-07-26T03:56:38.250Z,100
2017-07-26T03:57:37.820Z,112
2017-07-26T03:58:37.519Z,116
2017-07-26T03:59:38.098Z,128
2017-07-26T04:00:38.119Z,132
2017-07-26T04:01:37.755Z,140
2017-07-26T04:02:37.741Z,152
2017-07-26T04:03:38.058Z,164
2017-07-26T04:04:38.029Z,176
2017-07-26T04:05:37.389Z,180
2017-07-26T04:06:37.980Z,188
2017-07-26T04:07:38.020Z,208
2017-07-26T04:08:37.967Z,212
2017-07-26T04:09:37.658Z,248
2017-07-26T04:10:37.911Z,284
2017-07-26T04:11:37.909Z,320
2017-07-26T04:12:37.579Z,356
2017-07-26T04:13:37.937Z,388
2017-07-26T04:14:37.530Z,420
2017-07-26T04:15:37.539Z,436
2017-07-26T04:16:37.518Z,448
2017-07-26T04:17:37.511Z,512
2017-07-26T04:18:37.779Z,552
2017-07-26T04:19:37.481Z,564
2017-07-26T04:20:37.449Z,568
2017-07-26T04:21:37.449Z,632
2017-07-26T04:22:37.189Z,592
2017-07-26T04:23:37.439Z,680
2017-07-26T04:24:37.389Z,700
2017-07-26T04:25:37.678Z,728
2017-07-26T04:26:37.669Z,756
2017-07-26T04:27:37.640Z,736
2017-07-26T04:28:37.329Z,712
2017-07-26T04:29:37.625Z,672
2017-07-26T04:30:37.289Z,692
2017-07-26T04:31:37.280Z,712
2017-07-26T04:32:36.948Z,728
2017-07-26T04:33:37.559Z,648
2017-07-26T04:34:36.678Z,640
2017-07-26T04:35:37.200Z,592
2017-07-26T04:36:37.200Z,572
2017-07-26T04:37:37.488Z,564
2017-07-26T04:38:37.498Z,568
2017-07-26T04:39:37.165Z,544
2017-07-26T04:40:37.472Z,512
2017-07-26T04:41:37.449Z,516
2017-07-26T04:42:37.402Z,508
2017-07-26T04:43:37.070Z,680
2017-07-26T04:44:37.379Z,816
2017-07-26T04:45:37.050Z,848
2017-07-26T04:46:37.349Z,868
2017-07-26T04:47:37.329Z,908
2017-07-26T04:48:37.312Z,932
2017-07-26T04:49:37.100Z,948
2017-07-26T04:50:37.289Z,1012
2017-07-26T04:51:36.969Z,1088
2017-07-26T04:52:37.244Z,1156
2017-07-26T04:53:37.245Z,1144
2017-07-26T04:54:37.245Z,1120
2017-07-26T04:55:36.908Z,1200
2017-07-26T04:56:36.575Z,1276
2017-07-26T04:57:37.179Z,1304
2017-07-26T04:58:37.150Z,1344
2017-07-26T04:59:37.139Z,1376
2017-07-26T05:00:36.511Z,1412
2017-07-26T05:01:36.798Z,1336
2017-07-26T05:02:37.107Z,1352
2017-07-26T05:03:36.586Z,1044
2017-07-26T05:04:36.569Z,1016
2017-07-26T05:05:36.561Z,828
2017-07-26T05:06:36.119Z,892
2017-07-26T05:07:36.807Z,948
2017-07-26T05:08:36.691Z,924
2017-07-26T05:09:36.979Z,916
2017-07-26T05:10:36.960Z,852
2017-07-26T05:11:36.962Z,672
2017-07-26T05:12:36.949Z,668
2017-07-26T05:13:36.618Z,632
2017-07-26T05:14:36.899Z,620
2017-07-26T05:15:36.875Z,560
2017-07-26T05:16:35.952Z,604
2017-07-26T05:17:36.321Z,604
2017-07-26T05:18:36.219Z,592
2017-07-26T05:19:36.200Z,624
2017-07-26T05:20:36.543Z,544
2017-07-26T05:21:36.559Z,624
2017-07-26T05:22:36.166Z,608
2017-07-26T05:23:36.137Z,584
2017-07-26T05:24:36.742Z,620
2017-07-26T05:25:36.731Z,728
2017-07-26T05:26:36.119Z,776
2017-07-26T05:27:35.762Z,856
2017-07-26T05:28:36.468Z,760
2017-07-26T05:29:36.352Z,848
2017-07-26T05:30:36.033Z,944
2017-07-26T05:31:36.650Z,992
2017-07-26T05:32:35.999Z,1000
2017-07-26T05:33:36.587Z,936
2017-07-26T05:34:36.586Z,828
2017-07-26T05:35:36.260Z,736
2017-07-26T05:36:36.549Z,680
2017-07-26T05:37:36.539Z,880
2017-07-26T05:38:36.210Z,804
2017-07-26T05:39:36.229Z,728
2017-07-26T05:40:36.495Z,772
2017-07-26T05:41:36.170Z,896
2017-07-26T05:42:36.159Z,944
2017-07-26T05:43:36.151Z,1052
2017-07-26T05:44:36.143Z,1460
2017-07-26T05:45:36.109Z,1900
2017-07-26T05:46:35.459Z,1876
2017-07-26T05:47:36.098Z,1956
2017-07-26T05:48:36.090Z,2152
2017-07-26T05:49:35.727Z,2260
2017-07-26T05:50:36.326Z,2516
2017-07-26T05:51:36.306Z,2424
2017-07-26T05:52:36.307Z,2888
2017-07-26T05:53:36.299Z,2532
2017-07-26T05:54:36.085Z,3032
2017-07-26T05:55:35.939Z,3896
2017-07-26T05:56:35.927Z,4140
2017-07-26T05:57:35.923Z,4176
2017-07-26T05:58:36.210Z,3788
2017-07-26T05:59:36.211Z,4308
2017-07-26T06:00:36.181Z,4004
2017-07-26T06:01:36.200Z,4844
2017-07-26T06:02:36.174Z,4164
2017-07-26T06:03:36.227Z,4272
2017-07-26T06:04:35.820Z,4424
2017-07-26T06:05:35.796Z,5184
2017-07-26T06:06:36.108Z,4692
2017-07-26T06:07:35.761Z,4284
2017-07-26T06:08:36.063Z,4860
2017-07-26T06:09:36.041Z,4312
2017-07-26T06:10:36.044Z,6000
2017-07-26T06:11:36.050Z,6712
2017-07-26T06:12:36.009Z,6116
2017-07-26T06:13:36.113Z,5512
2017-07-26T06:14:36.069Z,4744
2017-07-26T06:15:35.671Z,5668
2017-07-26T06:16:35.640Z,6068
2017-07-26T06:17:35.929Z,5748
2017-07-26T06:18:35.601Z,5896
2017-07-26T06:19:35.890Z,5536
2017-07-26T06:20:35.674Z,5720
2017-07-26T06:21:35.546Z,6000
2017-07-26T06:22:35.911Z,5564
2017-07-26T06:23:35.853Z,5324
2017-07-26T06:24:35.502Z,6368
2017-07-26T06:25:35.789Z,6892
2017-07-26T06:26:35.840Z,6944
2017-07-26T06:27:35.786Z,6680
2017-07-26T06:28:35.469Z,6804
2017-07-26T06:29:35.439Z,7508
2017-07-26T06:30:35.437Z,5968
2017-07-26T06:31:35.431Z,4892
2017-07-26T06:32:35.404Z,4988
2017-07-26T06:33:35.688Z,4604
2017-07-26T06:34:35.078Z,5056
2017-07-26T06:35:35.106Z,4624
2017-07-26T06:36:35.638Z,5056
2017-07-26T06:37:35.629Z,6560
2017-07-26T06:38:35.599Z,6768
2017-07-26T06:39:35.286Z,7364
2017-07-26T06:40:35.298Z,6332
2017-07-26T06:41:35.570Z,6692
2017-07-26T06:42:35.238Z,7048
2017-07-26T06:43:35.549Z,7740
2017-07-26T06:44:35.539Z,8804
2017-07-26T06:45:35.502Z,7560
2017-07-26T06:46:34.899Z,6160
2017-07-26T06:47:35.177Z,8312
2017-07-26T06:48:35.156Z,8172
2017-07-26T06:49:34.863Z,7596
2017-07-26T06:50:34.840Z,6008
2017-07-26T06:51:34.820Z,4768
2017-07-26T06:52:35.419Z,5824
2017-07-26T06:53:35.118Z,5872
2017-07-26T06:54:35.396Z,5200
2017-07-26T06:55:35.366Z,6180
2017-07-26T06:56:35.348Z,5600
2017-07-26T06:57:35.038Z,6224
2017-07-26T06:58:35.088Z,5100
2017-07-26T06:59:34.811Z,5768
2017-07-26T07:00:35.001Z,5764
2017-07-26T07:01:35.007Z,7316
2017-07-26T07:02:35.268Z,7188
2017-07-26T07:03:35.008Z,6348
2017-07-26T07:04:35.247Z,6240
2017-07-26T07:05:34.990Z,6576
2017-07-26T07:06:35.210Z,6084
2017-07-26T07:07:35.209Z,5868
2017-07-26T07:08:35.187Z,6156
2017-07-26T07:09:34.580Z,5936
2017-07-26T07:10:35.151Z,5300
2017-07-26T07:11:34.833Z,6076
2017-07-26T07:12:34.817Z,7120
2017-07-26T07:13:35.132Z,5180
2017-07-26T07:14:35.110Z,5328
2017-07-26T07:15:34.798Z,5088
2017-07-26T07:16:35.079Z,5188
2017-07-26T07:17:34.441Z,5480
2017-07-26T07:18:35.050Z,5400
2017-07-26T07:19:34.790Z,5840
2017-07-26T07:20:35.022Z,6084
2017-07-26T07:21:34.709Z,6512
2017-07-26T07:22:34.998Z,6628
2017-07-26T07:23:34.692Z,6840
2017-07-26T07:24:34.348Z,7260
2017-07-26T07:25:34.948Z,7176
2017-07-26T07:26:34.316Z,7080
2017-07-26T07:27:34.717Z,7020
2017-07-26T07:28:34.910Z,7244
2017-07-26T07:29:34.971Z,7964
2017-07-26T07:30:34.879Z,8344
2017-07-26T07:31:34.260Z,8572
2017-07-26T07:32:34.857Z,7896
2017-07-26T07:33:34.969Z,7796
2017-07-26T07:34:34.231Z,7672
2017-07-26T07:35:34.498Z,7368
2017-07-26T07:36:34.268Z,7292
2017-07-26T07:37:34.878Z,7176
2017-07-26T07:38:34.163Z,8240
2017-07-26T07:39:34.775Z,9436
2017-07-26T07:40:34.448Z,8248
2017-07-26T07:41:34.122Z,7216
2017-07-26T07:42:34.800Z,7028
2017-07-26T07:43:34.750Z,6796
2017-07-26T07:44:34.717Z,6820
2017-07-26T07:45:34.379Z,6672
2017-07-26T07:46:34.047Z,6820
2017-07-26T07:47:34.356Z,6884
2017-07-26T07:48:34.029Z,7168
2017-07-26T07:49:34.032Z,7716
2017-07-26T07:50:34.679Z,10444
2017-07-26T07:51:34.664Z,9296
2017-07-26T07:52:34.289Z,10200
2017-07-26T07:53:34.280Z,9908
2017-07-26T07:54:34.258Z,10256
2017-07-26T07:55:34.570Z,10380
2017-07-26T07:56:34.227Z,9184
2017-07-26T07:57:34.638Z,9696
2017-07-26T07:58:34.532Z,9836
2017-07-26T07:59:34.197Z,9188
2017-07-26T08:00:34.499Z,10176
2017-07-26T08:01:34.169Z,11048
2017-07-26T08:02:34.166Z,11628
2017-07-26T08:03:34.468Z,9120
2017-07-26T08:04:34.534Z,10964
2017-07-26T08:05:33.812Z,11848
2017-07-26T08:06:34.449Z,10708
2017-07-26T08:07:33.483Z,11456
2017-07-26T08:08:34.392Z,11524
2017-07-26T08:09:34.396Z,13036
2017-07-26T08:10:34.079Z,13916
2017-07-26T08:11:34.359Z,12584
2017-07-26T08:12:34.049Z,11100
2017-07-26T08:13:34.318Z,14456
2017-07-26T08:14:34.338Z,9576
2017-07-26T08:15:33.998Z,9488
2017-07-26T08:16:33.974Z,11120
2017-07-26T08:17:33.982Z,10136
2017-07-26T08:18:33.979Z,9276
2017-07-26T08:19:33.957Z,9168
2017-07-26T08:20:34.272Z,9460
2017-07-26T08:21:34.239Z,8836
2017-07-26T08:22:33.939Z,8880
2017-07-26T08:23:34.227Z,10604
2017-07-26T08:24:33.618Z,21216
2017-07-26T08:25:34.200Z,41024
2017-07-26T08:26:34.168Z,57344
2017-07-26T08:27:33.869Z,68800
2017-07-26T08:28:33.854Z,79712
2017-07-26T08:29:33.860Z,25888
2017-07-26T08:30:33.838Z,10728
2017-07-26T08:31:33.855Z,93152
2017-07-26T08:32:34.109Z,101248
2017-07-26T08:33:34.118Z,98080
2017-07-26T08:34:33.828Z,84416
2017-07-26T08:35:33.793Z,9016
2017-07-26T08:36:33.474Z,88512
2017-07-26T08:37:33.759Z,97312
2017-07-26T08:38:33.772Z,96672
2017-07-26T08:39:33.755Z,23040
2017-07-26T08:40:33.851Z,102016
2017-07-26T08:41:34.045Z,94912
2017-07-26T08:42:34.028Z,89312
2017-07-26T08:43:34.109Z,12556
2017-07-26T08:44:34.009Z,69696
2017-07-26T08:45:34.021Z,99808
2017-07-26T08:46:33.757Z,87712
2017-07-26T08:47:34.040Z,71424
2017-07-26T08:48:33.671Z,92512
2017-07-26T08:49:33.690Z,76096
2017-07-26T08:50:33.717Z,96928
2017-07-26T08:51:33.963Z,89408
2017-07-26T08:52:33.969Z,77696
2017-07-26T08:53:33.656Z,81984
2017-07-26T08:54:33.658Z,48448
2017-07-26T08:55:33.638Z,91040
2017-07-26T08:56:33.637Z,89824
2017-07-26T08:57:33.637Z,91424
2017-07-26T08:58:33.613Z,92704
2017-07-26T08:59:33.943Z,88608
2017-07-26T09:00:33.921Z,92640
2017-07-26T09:01:33.910Z,88992
2017-07-26T09:02:33.926Z,88576
2017-07-26T09:03:33.889Z,88512
2017-07-26T09:04:33.901Z,88576
2017-07-26T09:05:33.902Z,58848
2017-07-26T09:06:33.897Z,9936
2017-07-26T09:07:33.584Z,18656
2017-07-26T09:08:33.595Z,11640
2017-07-26T09:09:33.891Z,9756
2017-07-26T09:10:33.887Z,89440
2017-07-26T09:11:33.901Z,87296
2017-07-26T09:12:33.869Z,90304
2017-07-26T09:13:33.669Z,38048
2017-07-26T09:14:33.572Z,84960
2017-07-26T09:15:33.581Z,87328
2017-07-26T09:16:33.888Z,87520
2017-07-26T09:17:33.899Z,12880
2017-07-26T09:18:33.911Z,14392
2017-07-26T09:19:33.664Z,81792
2017-07-26T09:20:33.873Z,87040
2017-07-26T09:21:33.585Z,86464
2017-07-26T09:22:33.860Z,83264
2017-07-26T09:23:33.856Z,78880
2017-07-26T09:24:33.844Z,9224
2017-07-26T09:25:33.850Z,8984
2017-07-26T09:26:33.851Z,7544
2017-07-26T09:27:33.539Z,74816
2017-07-26T09:28:33.558Z,74944
2017-07-26T09:29:33.531Z,82368
2017-07-26T09:30:33.836Z,80864
2017-07-26T09:31:33.841Z,75104
2017-07-26T09:32:33.840Z,75584
2017-07-26T09:33:33.811Z,39904
2017-07-26T09:34:33.831Z,9956
2017-07-26T09:35:33.208Z,21056
2017-07-26T09:36:33.207Z,77760
2017-07-26T09:37:33.810Z,82304
2017-07-26T09:38:33.811Z,8176
2017-07-26T09:39:33.804Z,7352
2017-07-26T09:40:33.829Z,6436
2017-07-26T09:41:33.821Z,6244
2017-07-26T09:42:33.800Z,45696
2017-07-26T09:43:33.801Z,69664
2017-07-26T09:44:33.590Z,20320
2017-07-26T09:45:33.491Z,6336
2017-07-26T09:46:33.791Z,5352
2017-07-26T09:47:33.844Z,5444
2017-07-26T09:48:33.780Z,5268
2017-07-26T09:49:33.581Z,66304
2017-07-26T09:50:33.810Z,70944
2017-07-26T09:51:33.790Z,75168
2017-07-26T09:52:33.757Z,69888
2017-07-26T09:53:33.811Z,66976
2017-07-26T09:54:33.770Z,66528
2017-07-26T09:55:33.127Z,65312
2017-07-26T09:56:33.738Z,65824
2017-07-26T09:57:33.443Z,65216
2017-07-26T09:58:33.439Z,60992
2017-07-26T09:59:33.195Z,58912
2017-07-26T10:00:33.720Z,56000
2017-07-26T10:01:33.722Z,54176
2017-07-26T10:02:33.732Z,55392
2017-07-26T10:03:33.720Z,9216
2017-07-26T10:04:33.421Z,59552
2017-07-26T10:05:33.720Z,60448
2017-07-26T10:06:33.731Z,59488
2017-07-26T10:07:33.711Z,57728
2017-07-26T10:08:33.721Z,57440
2017-07-26T10:09:33.717Z,45024
2017-07-26T10:10:33.446Z,55808
2017-07-26T10:11:33.690Z,9820
2017-07-26T10:12:33.701Z,57600
2017-07-26T10:13:33.797Z,12796
2017-07-26T10:14:33.717Z,8860
2017-07-26T10:15:33.382Z,7280
2017-07-26T10:16:33.705Z,6276
2017-07-26T10:17:33.670Z,5968
2017-07-26T10:18:33.739Z,5828
2017-07-26T10:19:33.114Z,25856
2017-07-26T10:20:33.657Z,6860
2017-07-26T10:21:33.661Z,28704
2017-07-26T10:22:33.670Z,32480
2017-07-26T10:23:33.669Z,16000
2017-07-26T10:24:33.360Z,12872
2017-07-26T10:25:33.322Z,12340
2017-07-26T10:26:33.671Z,12108
2017-07-26T10:27:33.662Z,11812
2017-07-26T10:28:33.599Z,11572
2017-07-26T10:29:33.605Z,11148
2017-07-26T10:30:33.610Z,8148
2017-07-26T10:31:33.611Z,7788
2017-07-26T10:32:33.590Z,7424
2017-07-26T10:33:33.571Z,10896
2017-07-26T10:34:33.570Z,10920
2017-07-26T10:35:33.567Z,10436
2017-07-26T10:36:33.246Z,7364
2017-07-26T10:37:33.569Z,10472
2017-07-26T10:38:33.557Z,10548
2017-07-26T10:39:33.301Z,10412
2017-07-26T10:40:33.206Z,10196
2017-07-26T10:41:33.525Z,10408
2017-07-26T10:42:33.246Z,10688
2017-07-26T10:43:32.585Z,10760
2017-07-26T10:44:33.242Z,10580
2017-07-26T10:45:33.487Z,10992
2017-07-26T10:46:32.908Z,7040
2017-07-26T10:47:33.241Z,6420
2017-07-26T10:48:33.192Z,6184
2017-07-26T10:49:32.537Z,5688
2017-07-26T10:50:32.848Z,5336
2017-07-26T10:51:33.137Z,4868
2017-07-26T10:52:32.844Z,4552
2017-07-26T10:53:32.920Z,4348
2017-07-26T10:54:33.116Z,4224
2017-07-26T10:55:33.109Z,4412
2017-07-26T10:56:33.408Z,4792
2017-07-26T10:57:33.110Z,7796
2017-07-26T10:58:32.774Z,7148
2017-07-26T10:59:33.069Z,5664
2017-07-26T11:00:33.059Z,6372
2017-07-26T11:01:33.108Z,9416
2017-07-26T11:02:33.381Z,9432
2017-07-26T11:03:33.053Z,9404
2017-07-26T11:04:33.040Z,9300
2017-07-26T11:05:33.040Z,9168
2017-07-26T11:06:32.710Z,9040
2017-07-26T11:07:33.400Z,8944
2017-07-26T11:08:32.998Z,9008
2017-07-26T11:09:33.000Z,9348
2017-07-26T11:10:33.343Z,9312
2017-07-26T11:11:33.279Z,9016
2017-07-26T11:12:33.289Z,9128
2017-07-26T11:13:33.269Z,8356
2017-07-26T11:14:32.708Z,9352
2017-07-26T11:15:33.252Z,9556
2017-07-26T11:16:33.259Z,7700
2017-07-26T11:17:33.230Z,6128
2017-07-26T11:18:33.250Z,6164
2017-07-26T11:19:33.227Z,6020
2017-07-26T11:20:33.224Z,6052
2017-07-26T11:21:33.240Z,6464
2017-07-26T11:22:33.205Z,9668
2017-07-26T11:23:32.912Z,9844
2017-07-26T11:24:33.209Z,9588
2017-07-26T11:25:32.884Z,9232
2017-07-26T11:26:32.858Z,8992
2017-07-26T11:27:33.160Z,8968
2017-07-26T11:28:33.149Z,8896
2017-07-26T11:29:33.169Z,8740
2017-07-26T11:30:33.142Z,8768
2017-07-26T11:31:32.208Z,8620
2017-07-26T11:32:33.144Z,8476
2017-07-26T11:33:32.500Z,8596
2017-07-26T11:34:33.128Z,8916
2017-07-26T11:35:32.908Z,9080
2017-07-26T11:36:32.179Z,8984
2017-07-26T11:37:33.179Z,9352
2017-07-26T11:38:33.099Z,9744
2017-07-26T11:39:32.464Z,9952
2017-07-26T11:40:33.082Z,9356
2017-07-26T11:41:33.069Z,9076
2017-07-26T11:42:32.429Z,8904
2017-07-26T11:43:33.102Z,8700
2017-07-26T11:44:33.090Z,8720
2017-07-26T11:45:32.421Z,8624
2017-07-26T11:46:32.412Z,8540
2017-07-26T11:47:33.017Z,8320
2017-07-26T11:48:32.700Z,4832
2017-07-26T11:49:32.706Z,4672
2017-07-26T11:50:32.988Z,7448
2017-07-26T11:51:32.668Z,8296
2017-07-26T11:52:32.703Z,8280
2017-07-26T11:53:33.023Z,8368
2017-07-26T11:54:32.958Z,8352
2017-07-26T11:55:32.969Z,8160
2017-07-26T11:56:32.638Z,8084
2017-07-26T11:57:32.375Z,8032
2017-07-26T11:58:32.940Z,7576
2017-07-26T11:59:32.317Z,8168
2017-07-26T12:00:32.599Z,6520
2017-07-26T12:01:32.913Z,8412
2017-07-26T12:02:32.581Z,8264
2017-07-26T12:03:32.578Z,8272
2017-07-26T12:04:32.591Z,8672
2017-07-26T12:05:32.569Z,8988
2017-07-26T12:06:32.866Z,9144
2017-07-26T12:07:32.540Z,9368
2017-07-26T12:08:32.858Z,9472
2017-07-26T12:09:32.851Z,8968
2017-07-26T12:10:32.842Z,8748
2017-07-26T12:11:32.826Z,8408
2017-07-26T12:12:32.530Z,8348
2017-07-26T12:13:32.541Z,8356
2017-07-26T12:14:32.498Z,7168
2017-07-26T12:15:32.812Z,7872
2017-07-26T12:16:32.191Z,7812
2017-07-26T12:17:32.167Z,7428
2017-07-26T12:18:32.800Z,7548
2017-07-26T12:19:32.160Z,8132
2017-07-26T12:20:32.904Z,8120
2017-07-26T12:21:32.155Z,5616
2017-07-26T12:22:32.762Z,8092
2017-07-26T12:23:32.136Z,8080
2017-07-26T12:24:32.130Z,8156
2017-07-26T12:25:32.410Z,7700
2017-07-26T12:26:32.109Z,8092
2017-07-26T12:27:32.420Z,8316
2017-07-26T12:28:32.425Z,8200
2017-07-26T12:29:32.811Z,5996
2017-07-26T12:30:32.390Z,6168
2017-07-26T12:31:32.699Z,7972
2017-07-26T12:32:32.378Z,6744
2017-07-26T12:33:32.730Z,9572
2017-07-26T12:34:32.364Z,9300
2017-07-26T12:35:32.666Z,9160
2017-07-26T12:36:32.349Z,9576
2017-07-26T12:37:32.031Z,9596
2017-07-26T12:38:32.330Z,9460
2017-07-26T12:39:31.709Z,9480
2017-07-26T12:40:32.320Z,9000
2017-07-26T12:41:32.321Z,8424
2017-07-26T12:42:32.603Z,8156
2017-07-26T12:43:31.976Z,7868
2017-07-26T12:44:32.599Z,7680
2017-07-26T12:45:32.282Z,7748
2017-07-26T12:46:32.581Z,7708
2017-07-26T12:47:32.261Z,7560
2017-07-26T12:48:32.567Z,7584
2017-07-26T12:49:32.249Z,7576
2017-07-26T12:50:32.544Z,7500
2017-07-26T12:51:32.224Z,7308
2017-07-26T12:52:32.567Z,7320
2017-07-26T12:53:31.908Z,7312
2017-07-26T12:54:32.547Z,7452
2017-07-26T12:55:32.207Z,7244
2017-07-26T12:56:32.186Z,7244
2017-07-26T12:57:32.521Z,7212
2017-07-26T12:58:32.607Z,4408
2017-07-26T12:59:32.560Z,4628
2017-07-26T13:00:32.169Z,7132
2017-07-26T13:01:32.548Z,7244
2017-07-26T13:02:32.158Z,7100
2017-07-26T13:03:32.558Z,7380
2017-07-26T13:04:31.828Z,7440
2017-07-26T13:05:32.130Z,7520
2017-07-26T13:06:32.470Z,7508
2017-07-26T13:07:32.439Z,7676
2017-07-26T13:08:32.103Z,7712
2017-07-26T13:09:32.417Z,7636
2017-07-26T13:10:32.409Z,7616
2017-07-26T13:11:32.073Z,7600
2017-07-26T13:12:32.369Z,7508
2017-07-26T13:13:32.058Z,7444
2017-07-26T13:14:32.068Z,5092
2017-07-26T13:15:32.351Z,7208
2017-07-26T13:16:31.729Z,7740
2017-07-26T13:17:32.060Z,8076
2017-07-26T13:18:31.809Z,8180
2017-07-26T13:19:32.010Z,8172
2017-07-26T13:20:31.701Z,8356
2017-07-26T13:21:31.997Z,8428
2017-07-26T13:22:31.726Z,7456
2017-07-26T13:23:32.282Z,7340
2017-07-26T13:24:32.313Z,7656
2017-07-26T13:25:32.268Z,7324
2017-07-26T13:26:31.356Z,7856
2017-07-26T13:27:31.638Z,8024
2017-07-26T13:28:32.271Z,7792
2017-07-26T13:29:32.271Z,7832
2017-07-26T13:30:32.279Z,7544
2017-07-26T13:31:31.921Z,7636
2017-07-26T13:32:32.220Z,7528
2017-07-26T13:33:32.221Z,7464
2017-07-26T13:34:31.289Z,7272
2017-07-26T13:35:32.221Z,7072
2017-07-26T13:36:31.628Z,7180
2017-07-26T13:37:31.568Z,7284
2017-07-26T13:38:31.578Z,7496
2017-07-26T13:39:31.868Z,7616